createdAt,value
2023-02-19T00:04:28.826Z,84.05
2023-02-19T00:09:29.646Z,84.07
2023-02-19T00:14:28.791Z,84.05
2023-02-19T00:19:28.095Z,83.86
2023-02-19T00:24:27.423Z,84.02
2023-02-19T00:29:29.270Z,84.04
2023-02-19T00:34:28.546Z,84.08
2023-02-19T00:39:28.369Z,83.98
2023-02-19T00:44:27.227Z,83.74
2023-02-19T00:49:27.098Z,83.60
2023-02-19T00:54:27.767Z,83.49
2023-02-19T00:59:26.593Z,83.44
2023-02-19T01:04:26.157Z,83.33
2023-02-19T01:09:25.625Z,83.08
2023-02-19T01:14:25.153Z,82.74
2023-02-19T01:19:23.959Z,82.51
2023-02-19T01:24:23.548Z,82.29
2023-02-19T01:29:23.026Z,82.09
2023-02-19T01:34:22.567Z,81.69
2023-02-19T01:39:21.427Z,81.62
2023-02-19T01:45:26.644Z,81.06
2023-02-19T01:50:29.801Z,80.74
2023-02-19T01:55:29.406Z,80.56
2023-02-19T02:00:29.545Z,80.17
2023-02-19T02:05:45.518Z,80.09
2023-02-19T02:10:46.819Z,80.05
2023-02-19T02:16:01.121Z,79.99
2023-02-19T02:21:35.139Z,79.94
2023-02-19T02:26:52.299Z,80.07
2023-02-19T02:31:59.623Z,80.06
2023-02-19T02:37:02.099Z,80.11
2023-02-19T02:42:20.352Z,80.13
2023-02-19T02:47:39.466Z,80.34
2023-02-19T02:53:00.686Z,80.47
2023-02-19T02:58:00.823Z,80.57
2023-02-19T03:03:01.571Z,80.77
2023-02-19T03:08:11.155Z,80.87
2023-02-19T03:13:35.825Z,81.05
2023-02-19T03:18:59.112Z,81.12
2023-02-19T03:24:17.210Z,81.21
2023-02-19T03:29:26.219Z,81.23
2023-02-19T03:34:38.134Z,81.29
2023-02-19T03:39:44.649Z,81.54
2023-02-19T03:44:57.532Z,81.57
2023-02-19T03:50:09.551Z,81.49
2023-02-19T03:55:15.733Z,81.72
2023-02-19T04:00:22.804Z,81.91
2023-02-19T04:05:29.219Z,82.08
2023-02-19T04:10:30.052Z,82.22
2023-02-19T04:15:35.748Z,82.25
2023-02-19T04:20:41.096Z,82.26
2023-02-19T04:25:43.859Z,82.47
2023-02-19T04:30:43.231Z,82.64
2023-02-19T04:35:42.453Z,82.68
2023-02-19T04:40:42.138Z,82.75
2023-02-19T04:45:42.641Z,82.57
2023-02-19T04:50:42.459Z,82.76
2023-02-19T04:55:43.445Z,82.82
2023-02-19T05:00:42.812Z,83.28
2023-02-19T05:05:42.045Z,83.47
2023-02-19T05:10:41.049Z,83.25
2023-02-19T05:15:40.641Z,83.17
2023-02-19T05:20:41.489Z,83.35
2023-02-19T05:25:40.959Z,83.35
2023-02-19T05:30:40.647Z,83.44
2023-02-19T05:35:46.460Z,83.75
2023-02-19T05:40:46.706Z,83.95
2023-02-19T05:45:46.159Z,83.96
2023-02-19T05:50:45.542Z,83.95
2023-02-19T05:55:44.973Z,83.97
2023-02-19T06:00:44.726Z,83.96
2023-02-19T06:05:45.147Z,84.06
2023-02-19T06:10:45.067Z,83.96
2023-02-19T06:15:45.443Z,83.85
2023-02-19T06:20:45.179Z,83.91
2023-02-19T06:25:45.065Z,83.79
2023-02-19T06:30:44.102Z,84.06
2023-02-19T06:35:43.073Z,83.83
2023-02-19T06:40:47.165Z,83.72
2023-02-19T06:45:46.878Z,83.82
2023-02-19T06:50:46.228Z,83.89
2023-02-19T06:55:45.499Z,83.64
2023-02-19T07:00:45.174Z,83.54
2023-02-19T07:05:44.011Z,83.46
2023-02-19T07:10:43.534Z,83.62
2023-02-19T07:15:43.107Z,83.40
2023-02-19T07:20:42.810Z,83.27
2023-02-19T07:25:45.595Z,83.50
2023-02-19T07:30:46.083Z,83.37
2023-02-19T07:35:52.204Z,83.34
2023-02-19T07:40:59.095Z,83.15
2023-02-19T07:46:00.578Z,83.03
2023-02-19T07:51:02.412Z,82.94
2023-02-19T07:56:08.927Z,82.53
2023-02-19T08:01:17.405Z,82.30
2023-02-19T08:06:17.397Z,82.20
2023-02-19T08:11:34.206Z,81.86
2023-02-19T08:16:42.646Z,81.70
2023-02-19T08:21:43.292Z,81.79
2023-02-19T08:26:42.587Z,81.68
2023-02-19T08:31:42.248Z,81.79
2023-02-19T08:36:44.562Z,81.67
2023-02-19T08:41:43.653Z,81.41
2023-02-19T08:46:43.963Z,81.12
2023-02-19T08:51:43.263Z,80.95
2023-02-19T08:56:43.567Z,80.86
2023-02-19T09:01:42.945Z,80.87
2023-02-19T09:06:42.979Z,80.64
2023-02-19T09:11:43.927Z,80.69
2023-02-19T09:16:43.906Z,80.58
2023-02-19T09:21:43.990Z,80.52
2023-02-19T09:26:42.587Z,80.45
2023-02-19T09:31:41.954Z,80.24
2023-02-19T09:36:41.385Z,79.49
2023-02-19T09:41:58.646Z,78.95
2023-02-19T09:47:00.447Z,78.67
2023-02-19T09:52:10.351Z,78.40
2023-02-19T09:57:17.421Z,77.86
2023-02-19T10:02:21.114Z,75.92
2023-02-19T10:07:24.221Z,75.25
2023-02-19T10:12:32.757Z,74.78
2023-02-19T10:17:37.573Z,74.62
2023-02-19T10:22:39.768Z,74.48
2023-02-19T10:27:39.264Z,74.98
2023-02-19T10:32:42.385Z,74.43
2023-02-19T10:37:50.485Z,74.39
2023-02-19T10:42:54.347Z,73.92
2023-02-19T10:47:54.460Z,73.81
2023-02-19T10:52:58.952Z,73.69
2023-02-19T10:57:58.810Z,73.28
2023-02-19T11:03:24.186Z,71.32
2023-02-19T11:08:26.427Z,70.39
2023-02-19T11:13:37.939Z,70.58
2023-02-19T11:18:38.743Z,70.53
2023-02-19T11:23:46.194Z,70.61
2023-02-19T11:28:46.407Z,70.96
2023-02-19T11:33:56.297Z,71.07
2023-02-19T11:38:56.232Z,71.27
2023-02-19T11:44:14.068Z,71.37
2023-02-19T11:49:30.671Z,71.54
2023-02-19T11:54:51.166Z,70.42
2023-02-19T12:00:04.107Z,69.07
2023-02-19T12:05:31.680Z,68.43
2023-02-19T12:10:42.097Z,68.10
2023-02-19T12:16:07.231Z,67.94
2023-02-19T12:21:26.943Z,67.63
2023-02-19T12:26:35.477Z,68.46
2023-02-19T12:32:15.686Z,68.91
2023-02-19T12:37:36.736Z,69.35
2023-02-19T12:42:59.118Z,68.52
2023-02-19T12:48:11.620Z,67.33
2023-02-19T12:53:29.457Z,67.58
2023-02-19T12:58:37.145Z,67.33
2023-02-19T13:03:49.425Z,64.49
2023-02-19T13:09:07.384Z,62.78
2023-02-19T13:14:18.533Z,62.92
2023-02-19T13:19:17.788Z,62.89
2023-02-19T13:24:25.191Z,63.00
2023-02-19T13:29:43.434Z,62.43
2023-02-19T13:35:02.059Z,63.00
2023-02-19T13:40:06.876Z,61.88
2023-02-19T13:45:08.991Z,62.77
2023-02-19T13:50:22.673Z,62.86
2023-02-19T13:55:55.480Z,62.51
2023-02-19T14:00:56.734Z,62.95
2023-02-19T14:06:06.721Z,63.26
2023-02-19T14:11:08.066Z,63.40
2023-02-19T14:16:28.294Z,63.82
2023-02-19T14:21:38.332Z,63.45
2023-02-19T14:26:39.428Z,62.97
2023-02-19T14:31:40.856Z,62.90
2023-02-19T14:36:50.403Z,63.14
2023-02-19T14:41:56.545Z,63.37
2023-02-19T14:47:10.731Z,63.34
2023-02-19T14:52:20.970Z,63.65
2023-02-19T14:57:27.242Z,63.57
2023-02-19T15:02:28.411Z,62.71
2023-02-19T15:07:31.785Z,61.23
2023-02-19T15:12:35.893Z,60.45
2023-02-19T15:17:42.291Z,60.41
2023-02-19T15:22:46.350Z,60.74
2023-02-19T15:27:45.920Z,60.91
2023-02-19T15:32:55.187Z,60.46
2023-02-19T15:37:56.281Z,60.24
2023-02-19T15:42:55.969Z,60.71
2023-02-19T15:48:01.593Z,61.44
2023-02-19T15:53:09.509Z,61.87
2023-02-19T15:58:19.441Z,62.54
2023-02-19T16:03:24.579Z,63.08
2023-02-19T16:08:33.207Z,63.54
2023-02-19T16:13:36.123Z,64.00
2023-02-19T16:18:36.613Z,64.38
2023-02-19T16:23:36.855Z,64.71
2023-02-19T16:28:42.152Z,64.93
2023-02-19T16:33:46.512Z,65.17
2023-02-19T16:39:02.023Z,65.34
2023-02-19T16:44:06.619Z,65.61
2023-02-19T16:49:05.392Z,65.77
2023-02-19T16:54:05.403Z,65.98
2023-02-19T16:59:04.913Z,65.98
2023-02-19T17:04:08.497Z,65.97
2023-02-19T17:09:08.563Z,65.74
2023-02-19T17:14:08.339Z,65.67
2023-02-19T17:19:14.598Z,65.58
2023-02-19T17:24:14.657Z,65.16
2023-02-19T17:29:18.699Z,64.90
2023-02-19T17:34:18.528Z,64.78
2023-02-19T17:39:20.099Z,64.56
2023-02-19T17:44:19.313Z,63.88
2023-02-19T17:49:19.842Z,63.51
2023-02-19T17:54:19.896Z,63.70
2023-02-19T17:59:19.326Z,63.99
2023-02-19T18:04:19.385Z,63.80
2023-02-19T18:09:21.706Z,63.32
2023-02-19T18:14:20.991Z,63.21
2023-02-19T18:19:22.733Z,62.97
2023-02-19T18:24:22.695Z,63.03
2023-02-19T18:29:24.437Z,62.68
2023-02-19T18:34:24.980Z,62.75
2023-02-19T18:39:24.202Z,62.85
2023-02-19T18:44:25.659Z,62.72
2023-02-19T18:49:25.913Z,62.72
2023-02-19T18:54:27.751Z,62.87
2023-02-19T18:59:27.936Z,62.87
2023-02-19T19:04:27.351Z,63.08
2023-02-19T19:09:27.172Z,63.18
2023-02-19T19:14:26.964Z,63.15
2023-02-19T19:19:26.277Z,63.11
2023-02-19T19:24:27.142Z,63.19
2023-02-19T19:29:27.324Z,63.32
2023-02-19T19:34:27.168Z,63.28
2023-02-19T19:39:26.753Z,63.33
2023-02-19T19:44:27.054Z,63.32
2023-02-19T19:49:26.619Z,63.43
2023-02-19T19:54:25.965Z,63.45
2023-02-19T19:59:25.418Z,63.51
2023-02-19T20:04:26.515Z,63.49
2023-02-19T20:09:29.399Z,63.40
2023-02-19T20:14:29.671Z,63.57
2023-02-19T20:19:28.982Z,63.85
2023-02-19T20:24:29.993Z,63.99
2023-02-19T20:29:31.616Z,64.25
2023-02-19T20:34:31.712Z,64.29
2023-02-19T20:39:32.269Z,64.40
2023-02-19T20:44:32.049Z,64.54
2023-02-19T20:49:34.621Z,64.74
2023-02-19T20:54:38.450Z,64.93
2023-02-19T20:59:39.044Z,65.15
2023-02-19T21:04:40.695Z,65.35
2023-02-19T21:09:40.452Z,65.58
2023-02-19T21:14:39.464Z,65.79
2023-02-19T21:19:39.204Z,66.01
2023-02-19T21:24:40.992Z,66.13
2023-02-19T21:29:40.222Z,66.25
2023-02-19T21:34:39.756Z,66.39
2023-02-19T21:39:39.097Z,66.57
2023-02-19T21:44:38.992Z,66.70
2023-02-19T21:49:38.594Z,66.82
2023-02-19T21:54:38.310Z,66.87
2023-02-19T21:59:37.647Z,67.07
2023-02-19T22:04:38.009Z,67.23
2023-02-19T22:09:38.614Z,67.48
2023-02-19T22:14:37.753Z,67.72
2023-02-19T22:19:37.268Z,68.00
2023-02-19T22:24:36.076Z,68.13
2023-02-19T22:29:36.695Z,68.24
2023-02-19T22:34:42.095Z,68.33
2023-02-19T22:39:41.509Z,68.49
2023-02-19T22:44:43.792Z,68.60
2023-02-19T22:49:45.659Z,68.73
2023-02-19T22:54:44.602Z,68.84
2023-02-19T22:59:44.025Z,68.91
2023-02-19T23:04:43.334Z,69.02
2023-02-19T23:09:43.241Z,69.16
2023-02-19T23:14:43.386Z,69.13
2023-02-19T23:19:42.406Z,69.36
2023-02-19T23:24:42.119Z,69.42
2023-02-19T23:29:41.513Z,69.63
2023-02-19T23:34:41.693Z,70.03
2023-02-19T23:39:41.020Z,70.86
2023-02-19T23:44:43.745Z,73.31
2023-02-19T23:49:44.547Z,73.78
2023-02-19T23:54:43.876Z,73.97
2023-02-19T23:59:43.149Z,75.03
